createdAt,value
2022-08-19T00:03:56.699Z,89.63
2022-08-19T00:08:55.868Z,90.33
2022-08-19T00:13:54.060Z,90.73
2022-08-19T00:18:54.334Z,90.23
2022-08-19T00:23:52.592Z,90.03
2022-08-19T00:28:51.784Z,85.33
2022-08-19T00:33:52.014Z,84.94
2022-08-19T00:38:50.250Z,86.34
2022-08-19T00:43:49.453Z,85.33
2022-08-19T00:48:49.678Z,85.98
2022-08-19T00:53:47.973Z,84.94
2022-08-19T00:58:49.283Z,86.08
2022-08-19T01:03:57.880Z,84.83
2022-08-19T01:08:45.794Z,87.23
2022-08-19T01:13:49.957Z,87.43
2022-08-19T01:18:44.298Z,86.68
2022-08-19T01:23:44.454Z,86.88
2022-08-19T01:28:42.647Z,85.39
2022-08-19T01:33:41.837Z,83.79
2022-08-19T01:38:44.020Z,80.70
2022-08-19T01:44:03.289Z,85.10
2022-08-19T01:48:39.561Z,85.19
2022-08-19T01:53:38.802Z,82.40
2022-08-19T01:58:38.975Z,81.80
2022-08-19T02:03:37.138Z,82.84
2022-08-19T02:08:35.323Z,81.90
2022-08-19T02:13:35.499Z,84.29
2022-08-19T02:18:35.706Z,76.61
2022-08-19T02:23:33.868Z,72.03
2022-08-19T02:28:33.196Z,80.06
2022-08-19T02:33:34.540Z,83.55
2022-08-19T02:38:33.827Z,83.79
2022-08-19T02:43:33.655Z,84.59
2022-08-19T02:48:31.279Z,85.60
2022-08-19T02:53:30.565Z,86.44
2022-08-19T02:58:28.867Z,83.49
2022-08-19T03:03:29.156Z,86.18
2022-08-19T03:08:27.468Z,86.88
2022-08-19T03:13:27.820Z,85.53
2022-08-19T03:18:29.082Z,85.74
2022-08-19T03:23:25.380Z,85.24
2022-08-19T03:28:25.675Z,84.09
2022-08-19T03:33:27.612Z,82.78
2022-08-19T03:38:24.224Z,81.74
2022-08-19T03:43:21.389Z,82.64
2022-08-19T03:48:21.697Z,85.44
2022-08-19T03:53:22.857Z,87.13
2022-08-19T03:58:21.165Z,87.87
2022-08-19T04:03:19.504Z,87.77
2022-08-19T04:08:18.630Z,87.83
2022-08-19T04:13:19.006Z,86.68
2022-08-19T04:18:18.111Z,84.89
2022-08-19T04:23:16.417Z,74.33
2022-08-19T04:28:15.783Z,81.74
2022-08-19T04:33:16.933Z,81.14
2022-08-19T04:38:15.093Z,83.09
2022-08-19T04:43:13.369Z,84.09
2022-08-19T04:48:26.360Z,83.09
2022-08-19T04:53:11.973Z,84.49
2022-08-19T04:58:12.078Z,82.64
2022-08-19T05:03:11.386Z,84.88
2022-08-19T05:08:10.681Z,86.93
2022-08-19T05:13:10.061Z,84.43
2022-08-19T05:18:10.224Z,84.43
2022-08-19T05:23:12.732Z,85.33
2022-08-19T05:28:07.456Z,84.53
2022-08-19T05:33:05.762Z,77.51
2022-08-19T05:38:05.072Z,75.43
2022-08-19T05:43:08.507Z,81.50
2022-08-19T05:48:04.650Z,75.41
2022-08-19T05:53:03.759Z,75.63
2022-08-19T05:58:02.049Z,74.77
2022-08-19T06:03:01.416Z,71.16
2022-08-19T06:08:01.638Z,80.40
2022-08-19T06:12:59.740Z,75.74
2022-08-19T06:17:59.876Z,82.24
2022-08-19T06:22:58.283Z,83.49
2022-08-19T06:28:14.713Z,83.09
2022-08-19T06:32:57.636Z,85.44
2022-08-19T06:37:56.803Z,84.99
2022-08-19T06:42:55.541Z,84.99
2022-08-19T06:47:55.396Z,82.00
2022-08-19T06:52:55.693Z,84.29
2022-08-19T06:57:53.944Z,73.83
2022-08-19T07:02:55.753Z,75.13
2022-08-19T07:07:51.989Z,75.84
2022-08-19T07:12:51.479Z,77.21
2022-08-19T07:17:52.787Z,73.80
2022-08-19T07:22:52.948Z,76.91
2022-08-19T07:27:54.346Z,80.43
2022-08-19T07:32:47.264Z,80.98
2022-08-19T07:37:47.522Z,78.19
2022-08-19T07:43:04.770Z,77.11
2022-08-19T07:47:58.388Z,76.61
2022-08-19T07:52:45.006Z,80.54
2022-08-19T08:02:42.450Z,75.31
2022-08-19T08:07:46.210Z,75.77
2022-08-19T08:12:41.844Z,78.15
2022-08-19T08:17:49.066Z,84.37
2022-08-19T08:22:40.211Z,83.39
2022-08-19T08:27:39.069Z,83.63
2022-08-19T08:32:37.766Z,80.13
2022-08-19T08:37:39.034Z,77.79
2022-08-19T08:42:36.306Z,72.06
2022-08-19T08:47:36.620Z,72.30
2022-08-19T08:52:35.840Z,79.63
2022-08-19T08:57:36.935Z,82.72
2022-08-19T09:02:33.276Z,71.46
2022-08-19T09:07:35.268Z,70.76
2022-08-19T09:12:31.875Z,78.45
2022-08-19T09:17:31.212Z,80.13
2022-08-19T09:22:31.311Z,79.60
2022-08-19T09:27:42.017Z,82.68
2022-08-19T09:32:29.768Z,75.47
2022-08-19T09:37:28.063Z,74.63
2022-08-19T09:42:30.273Z,70.49
2022-08-19T09:47:26.455Z,68.33
2022-08-19T09:52:32.690Z,76.15
2022-08-19T09:57:24.918Z,69.56
2022-08-19T10:02:25.276Z,78.59
2022-08-19T10:07:23.445Z,74.10
2022-08-19T10:12:23.647Z,78.45
2022-08-19T10:17:25.169Z,68.03
2022-08-19T10:22:20.992Z,67.19
2022-08-19T10:27:21.289Z,63.81
2022-08-19T10:32:33.706Z,69.89
2022-08-19T10:37:28.846Z,67.53
2022-08-19T10:42:19.998Z,66.93
2022-08-19T10:47:17.322Z,63.31
2022-08-19T10:52:18.574Z,64.24
2022-08-19T10:57:15.508Z,62.98
2022-08-19T11:02:14.846Z,68.36
2022-08-19T11:07:15.151Z,67.66
2022-08-19T11:12:13.481Z,62.18
2022-08-19T11:17:13.785Z,61.36
2022-08-19T11:22:16.131Z,62.18
2022-08-19T11:27:12.275Z,62.05
2022-08-19T11:32:10.562Z,62.88
2022-08-19T11:37:09.880Z,60.83
2022-08-19T11:42:10.167Z,60.21
2022-08-19T11:47:09.069Z,59.81
2022-08-19T11:52:07.672Z,59.61
2022-08-19T11:57:07.002Z,59.31
2022-08-19T12:02:06.312Z,59.21
2022-08-19T12:07:05.646Z,59.41
2022-08-19T12:12:05.799Z,59.11
2022-08-19T12:17:03.943Z,58.41
2022-08-19T12:22:03.082Z,58.71
2022-08-19T12:27:02.862Z,58.58
2022-08-19T12:32:01.703Z,58.69
2022-08-19T12:37:00.057Z,58.78
2022-08-19T12:42:01.203Z,58.69
2022-08-19T12:46:59.491Z,58.58
2022-08-19T12:52:00.644Z,58.69
2022-08-19T12:56:58.965Z,58.69
2022-08-19T13:01:58.259Z,58.58
2022-08-19T13:06:57.585Z,58.39
2022-08-19T13:11:57.923Z,57.96
2022-08-19T13:16:55.222Z,58.09
2022-08-19T13:22:00.104Z,57.96
2022-08-19T13:26:52.722Z,57.96
2022-08-19T13:31:53.030Z,58.26
2022-08-19T13:36:52.359Z,57.99
2022-08-19T13:41:52.619Z,57.99
2022-08-19T13:46:54.129Z,57.89
2022-08-19T13:51:50.034Z,58.09
2022-08-19T13:56:49.381Z,57.89
2022-08-19T14:01:48.507Z,57.79
2022-08-19T14:06:48.870Z,57.79
2022-08-19T14:11:48.013Z,57.69
2022-08-19T14:16:46.190Z,58.09
2022-08-19T14:21:46.401Z,57.89
2022-08-19T14:26:45.573Z,57.69
2022-08-19T14:31:43.675Z,57.69
2022-08-19T14:36:42.991Z,57.59
2022-08-19T14:41:41.363Z,57.59
2022-08-19T14:46:41.521Z,57.59
2022-08-19T14:51:40.713Z,57.49
2022-08-19T14:56:40.887Z,57.39
2022-08-19T15:01:39.094Z,57.29
2022-08-19T15:06:37.226Z,57.39
2022-08-19T15:11:38.386Z,57.29
2022-08-19T15:16:36.699Z,57.29
2022-08-19T15:21:38.018Z,57.69
2022-08-19T15:26:39.452Z,57.79
2022-08-19T15:31:35.550Z,57.39
2022-08-19T15:36:34.871Z,57.39
2022-08-19T15:41:33.204Z,57.39
2022-08-19T15:46:32.466Z,57.79
2022-08-19T15:51:32.823Z,58.09
2022-08-19T15:56:30.908Z,58.09
2022-08-19T16:01:30.270Z,58.18
2022-08-19T16:06:31.460Z,58.28
2022-08-19T16:11:30.794Z,58.39
2022-08-19T16:16:33.499Z,58.18
2022-08-19T16:21:28.311Z,58.39
2022-08-19T16:26:27.739Z,58.18
2022-08-19T16:31:26.914Z,58.28
2022-08-19T16:36:25.238Z,58.18
2022-08-19T16:41:25.454Z,58.09
2022-08-19T16:46:26.884Z,58.39
2022-08-19T16:51:23.054Z,58.18
2022-08-19T16:56:22.063Z,59.34
2022-08-19T17:01:21.321Z,58.71
2022-08-19T17:06:21.562Z,58.39
2022-08-19T17:11:20.785Z,58.39
2022-08-19T17:16:18.976Z,58.39
2022-08-19T17:21:18.183Z,58.61
2022-08-19T17:26:18.300Z,58.28
2022-08-19T17:31:17.601Z,58.18
2022-08-19T17:36:15.782Z,58.18
2022-08-19T17:41:17.075Z,60.56
2022-08-19T17:46:17.689Z,60.49
2022-08-19T17:51:13.542Z,65.86
2022-08-19T17:56:12.854Z,65.13
2022-08-19T18:01:13.181Z,63.17
2022-08-19T18:06:12.440Z,61.09
2022-08-19T18:11:11.617Z,64.00
2022-08-19T18:16:09.803Z,63.67
2022-08-19T18:21:09.004Z,62.15
2022-08-19T18:26:08.162Z,68.13
2022-08-19T18:31:07.342Z,70.39
2022-08-19T18:36:05.590Z,67.32
2022-08-19T18:41:06.762Z,63.80
2022-08-19T18:46:07.032Z,62.24
2022-08-19T18:51:04.092Z,61.94
2022-08-19T18:56:06.278Z,60.06
2022-08-19T19:01:03.559Z,59.86
2022-08-19T19:06:02.766Z,60.29
2022-08-19T19:11:00.926Z,59.04
2022-08-19T19:16:02.115Z,58.54
2022-08-19T19:20:59.396Z,59.27
2022-08-19T19:25:58.788Z,58.64
2022-08-19T19:30:58.855Z,58.44
2022-08-19T19:35:56.159Z,58.22
2022-08-19T19:40:57.556Z,58.31
2022-08-19T19:45:54.580Z,58.54
2022-08-19T19:50:56.353Z,59.86
2022-08-19T19:55:54.997Z,60.59
2022-08-19T20:00:53.453Z,61.85
2022-08-19T20:05:55.724Z,63.93
2022-08-19T20:10:51.748Z,71.77
2022-08-19T20:15:50.966Z,62.24
2022-08-19T20:20:51.183Z,64.93
2022-08-19T20:25:49.368Z,74.04
2022-08-19T20:30:49.547Z,64.93
2022-08-19T20:35:48.737Z,75.08
2022-08-19T20:40:46.934Z,74.04
2022-08-19T20:45:48.122Z,72.27
2022-08-19T20:50:45.290Z,75.18
2022-08-19T20:55:44.493Z,80.69
2022-08-19T21:00:43.724Z,73.74
2022-08-19T21:05:44.872Z,77.76
2022-08-19T21:10:43.054Z,80.55
2022-08-19T21:15:42.226Z,80.15
2022-08-19T21:20:40.394Z,74.14
2022-08-19T21:25:39.598Z,76.05
2022-08-19T21:30:38.872Z,74.98
2022-08-19T21:35:37.926Z,77.70
2022-08-19T21:40:38.122Z,78.84
2022-08-19T21:45:36.353Z,77.50
2022-08-19T21:50:38.525Z,80.49
2022-08-19T21:55:36.710Z,80.15
2022-08-19T22:00:34.925Z,80.05
2022-08-19T22:05:33.134Z,81.77
2022-08-19T22:10:33.321Z,79.48
2022-08-19T22:15:32.475Z,81.19
2022-08-19T22:20:31.650Z,79.88
2022-08-19T22:25:31.835Z,81.87
2022-08-19T22:30:33.296Z,82.24
2022-08-19T22:35:28.482Z,78.94
2022-08-19T22:40:27.697Z,80.69
2022-08-19T22:45:25.853Z,82.14
2022-08-19T22:50:26.053Z,83.18
2022-08-19T22:55:25.221Z,79.74
2022-08-19T23:00:24.612Z,77.29
2022-08-19T23:05:25.658Z,70.56
2022-08-19T23:10:27.209Z,75.65
2022-08-19T23:15:22.239Z,76.56
2022-08-19T23:20:23.469Z,79.08
2022-08-19T23:25:20.693Z,82.07
2022-08-19T23:30:19.917Z,83.72
2022-08-19T23:35:19.177Z,82.68
2022-08-19T23:40:17.431Z,84.13
2022-08-19T23:45:21.551Z,84.23
2022-08-19T23:50:17.011Z,84.53
2022-08-19T23:55:16.207Z,82.98
